sensor_id;sensor_type;location;lat;lon;timestamp;pressure;altitude;pressure_sealevel;temperature;humidity
46722;BME280;32455;43.430;23.136;2023-04-25T00:00:22;97227.94;;;11.89;100.00
46722;BME280;32455;43.430;23.136;2023-04-25T00:03:07;97225.47;;;11.83;100.00
46722;BME280;32455;43.430;23.136;2023-04-25T00:05:54;97239.28;;;11.91;100.00
46722;BME280;32455;43.430;23.136;2023-04-25T00:08:41;97233.09;;;11.91;100.00
46722;BME280;32455;43.430;23.136;2023-04-25T00:11:26;97217.75;;;11.91;100.00
46722;BME280;32455;43.430;23.136;2023-04-25T00:14:11;97217.44;;;11.88;100.00
46722;BME280;32455;43.430;23.136;2023-04-25T00:16:55;97215.53;;;11.88;100.00
46722;BME280;32455;43.430;23.136;2023-04-25T00:19:41;97205.59;;;11.67;100.00
46722;BME280;32455;43.430;23.136;2023-04-25T00:22:26;97214.75;;;11.66;100.00
46722;BME280;32455;43.430;23.136;2023-04-25T00:25:11;97212.38;;;11.69;100.00
46722;BME280;32455;43.430;23.136;2023-04-25T00:27:56;97209.69;;;11.69;100.00
46722;BME280;32455;43.430;23.136;2023-04-25T00:30:42;97196.59;;;11.56;100.00
46722;BME280;32455;43.430;23.136;2023-04-25T00:33:28;97192.81;;;11.52;100.00
46722;BME280;32455;43.430;23.136;2023-04-25T00:36:13;97201.44;;;11.54;100.00
46722;BME280;32455;43.430;23.136;2023-04-25T00:38:59;97207.75;;;11.43;100.00
46722;BME280;32455;43.430;23.136;2023-04-25T00:41:45;97195.28;;;11.32;100.00
46722;BME280;32455;43.430;23.136;2023-04-25T00:44:31;97198.44;;;11.50;100.00
46722;BME280;32455;43.430;23.136;2023-04-25T00:47:17;97208.56;;;11.43;100.00
46722;BME280;32455;43.430;23.136;2023-04-25T00:50:02;97198.19;;;11.30;100.00
46722;BME280;32455;43.430;23.136;2023-04-25T00:52:48;97190.06;;;11.25;100.00
46722;BME280;32455;43.430;23.136;2023-04-25T00:55:33;97197.22;;;11.36;100.00
46722;BME280;32455;43.430;23.136;2023-04-25T00:58:21;97205.19;;;11.53;100.00
46722;BME280;32455;43.430;23.136;2023-04-25T01:01:07;97201.78;;;11.63;100.00
46722;BME280;32455;43.430;23.136;2023-04-25T01:03:54;97210.50;;;11.70;100.00
46722;BME280;32455;43.430;23.136;2023-04-25T01:06:40;97203.28;;;11.26;100.00
46722;BME280;32455;43.430;23.136;2023-04-25T01:09:26;97189.97;;;11.15;100.00
46722;BME280;32455;43.430;23.136;2023-04-25T01:12:12;97192.97;;;11.18;100.00
46722;BME280;32455;43.430;23.136;2023-04-25T01:14:57;97202.13;;;11.00;100.00
46722;BME280;32455;43.430;23.136;2023-04-25T01:17:43;97194.84;;;10.79;100.00
46722;BME280;32455;43.430;23.136;2023-04-25T01:20:31;97179.50;;;10.58;100.00
46722;BME280;32455;43.430;23.136;2023-04-25T01:23:19;97179.38;;;10.31;100.00
46722;BME280;32455;43.430;23.136;2023-04-25T01:26:06;97192.41;;;10.39;100.00
46722;BME280;32455;43.430;23.136;2023-04-25T01:28:51;97196.13;;;10.93;100.00
46722;BME280;32455;43.430;23.136;2023-04-25T01:31:37;97195.28;;;10.88;100.00
46722;BME280;32455;43.430;23.136;2023-04-25T01:34:24;97204.03;;;10.44;100.00
46722;BME280;32455;43.430;23.136;2023-04-25T01:37:09;97183.25;;;10.23;100.00
46722;BME280;32455;43.430;23.136;2023-04-25T01:39:55;97174.06;;;9.85;100.00
46722;BME280;32455;43.430;23.136;2023-04-25T01:42:43;97183.47;;;9.71;100.00
46722;BME280;32455;43.430;23.136;2023-04-25T01:45:29;97191.72;;;9.52;100.00
46722;BME280;32455;43.430;23.136;2023-04-25T01:48:14;97181.63;;;9.43;100.00
46722;BME280;32455;43.430;23.136;2023-04-25T01:50:59;97195.75;;;9.38;100.00
46722;BME280;32455;43.430;23.136;2023-04-25T01:53:45;97174.72;;;9.47;100.00
46722;BME280;32455;43.430;23.136;2023-04-25T01:56:31;97183.97;;;9.68;100.00
46722;BME280;32455;43.430;23.136;2023-04-25T01:59:18;97176.13;;;9.66;100.00
46722;BME280;32455;43.430;23.136;2023-04-25T02:02:04;97156.34;;;9.39;100.00
46722;BME280;32455;43.430;23.136;2023-04-25T02:04:49;97159.41;;;9.31;100.00
46722;BME280;32455;43.430;23.136;2023-04-25T02:07:35;97168.06;;;9.21;100.00
46722;BME280;32455;43.430;23.136;2023-04-25T02:10:19;97150.59;;;8.78;100.00
46722;BME280;32455;43.430;23.136;2023-04-25T02:13:05;97151.22;;;9.09;100.00
46722;BME280;32455;43.430;23.136;2023-04-25T02:15:50;97146.44;;;8.99;100.00
46722;BME280;32455;43.430;23.136;2023-04-25T02:18:36;97153.22;;;8.90;100.00
46722;BME280;32455;43.430;23.136;2023-04-25T02:21:22;97139.50;;;8.86;100.00
46722;BME280;32455;43.430;23.136;2023-04-25T02:24:08;97151.50;;;8.84;100.00
46722;BME280;32455;43.430;23.136;2023-04-25T02:26:54;97150.06;;;8.52;100.00
46722;BME280;32455;43.430;23.136;2023-04-25T02:29:40;97155.25;;;8.71;100.00
46722;BME280;32455;43.430;23.136;2023-04-25T02:32:25;97157.31;;;8.92;100.00
46722;BME280;32455;43.430;23.136;2023-04-25T02:35:11;97153.47;;;8.88;100.00
46722;BME280;32455;43.430;23.136;2023-04-25T02:37:56;97153.03;;;8.80;100.00
46722;BME280;32455;43.430;23.136;2023-04-25T02:40:42;97155.72;;;8.56;100.00
46722;BME280;32455;43.430;23.136;2023-04-25T02:43:27;97150.88;;;8.41;100.00
46722;BME280;32455;43.430;23.136;2023-04-25T02:46:12;97133.16;;;8.28;100.00
46722;BME280;32455;43.430;23.136;2023-04-25T02:48:58;97151.09;;;8.40;100.00
46722;BME280;32455;43.430;23.136;2023-04-25T02:51:44;97148.88;;;8.48;100.00
46722;BME280;32455;43.430;23.136;2023-04-25T02:54:30;97149.72;;;9.01;100.00
46722;BME280;32455;43.430;23.136;2023-04-25T02:57:15;97147.41;;;8.93;100.00
46722;BME280;32455;43.430;23.136;2023-04-25T03:00:00;97148.03;;;8.71;100.00
46722;BME280;32455;43.430;23.136;2023-04-25T03:02:45;97150.59;;;8.19;100.00
46722;BME280;32455;43.430;23.136;2023-04-25T03:05:31;97146.75;;;8.15;100.00
46722;BME280;32455;43.430;23.136;2023-04-25T03:08:16;97139.22;;;8.36;100.00
46722;BME280;32455;43.430;23.136;2023-04-25T03:11:02;97132.78;;;8.60;100.00
46722;BME280;32455;43.430;23.136;2023-04-25T03:13:47;97134.25;;;8.91;100.00
46722;BME280;32455;43.430;23.136;2023-04-25T03:16:33;97126.09;;;8.86;100.00
46722;BME280;32455;43.430;23.136;2023-04-25T03:19:19;97128.31;;;8.89;100.00
46722;BME280;32455;43.430;23.136;2023-04-25T03:22:05;97132.78;;;9.12;100.00
46722;BME280;32455;43.430;23.136;2023-04-25T03:24:50;97142.03;;;9.50;100.00
46722;BME280;32455;43.430;23.136;2023-04-25T03:27:35;97169.00;;;9.89;100.00
46722;BME280;32455;43.430;23.136;2023-04-25T03:30:21;97161.44;;;9.40;100.00
46722;BME280;32455;43.430;23.136;2023-04-25T03:33:06;97180.63;;;9.20;100.00
46722;BME280;32455;43.430;23.136;2023-04-25T03:35:52;97179.34;;;9.23;100.00
46722;BME280;32455;43.430;23.136;2023-04-25T03:38:38;97171.13;;;9.13;100.00
46722;BME280;32455;43.430;23.136;2023-04-25T03:41:23;97156.28;;;9.22;100.00
46722;BME280;32455;43.430;23.136;2023-04-25T03:44:08;97171.44;;;9.16;100.00
46722;BME280;32455;43.430;23.136;2023-04-25T03:46:53;97157.00;;;9.17;100.00
46722;BME280;32455;43.430;23.136;2023-04-25T03:49:37;97172.84;;;9.47;100.00
46722;BME280;32455;43.430;23.136;2023-04-25T03:52:23;97171.97;;;10.04;100.00
46722;BME280;32455;43.430;23.136;2023-04-25T03:55:08;97177.25;;;10.88;100.00
46722;BME280;32455;43.430;23.136;2023-04-25T03:57:54;97170.72;;;10.62;100.00
46722;BME280;32455;43.430;23.136;2023-04-25T04:00:40;97188.50;;;10.46;100.00
46722;BME280;32455;43.430;23.136;2023-04-25T04:03:25;97184.06;;;10.23;100.00
46722;BME280;32455;43.430;23.136;2023-04-25T04:06:10;97194.50;;;10.20;100.00
46722;BME280;32455;43.430;23.136;2023-04-25T04:08:56;97189.88;;;10.15;100.00
46722;BME280;32455;43.430;23.136;2023-04-25T04:11:41;97190.59;;;10.27;100.00
46722;BME280;32455;43.430;23.136;2023-04-25T04:14:28;97189.28;;;10.13;100.00
46722;BME280;32455;43.430;23.136;2023-04-25T04:17:13;97184.31;;;10.22;100.00
46722;BME280;32455;43.430;23.136;2023-04-25T04:19:58;97197.22;;;10.37;100.00
46722;BME280;32455;43.430;23.136;2023-04-25T04:22:44;97194.81;;;10.40;100.00
46722;BME280;32455;43.430;23.136;2023-04-25T04:25:29;97201.19;;;10.34;100.00
46722;BME280;32455;43.430;23.136;2023-04-25T04:28:15;97201.59;;;10.26;100.00
46722;BME280;32455;43.430;23.136;2023-04-25T04:31:01;97192.44;;;10.10;100.00
46722;BME280;32455;43.430;23.136;2023-04-25T04:33:47;97199.88;;;10.03;100.00
46722;BME280;32455;43.430;23.136;2023-04-25T04:36:33;97200.09;;;10.01;100.00
46722;BME280;32455;43.430;23.136;2023-04-25T04:39:18;97195.97;;;10.11;100.00
46722;BME280;32455;43.430;23.136;2023-04-25T04:42:04;97188.13;;;9.92;100.00
46722;BME280;32455;43.430;23.136;2023-04-25T04:44:49;97174.06;;;10.02;100.00
46722;BME280;32455;43.430;23.136;2023-04-25T04:47:35;97191.59;;;10.38;100.00
46722;BME280;32455;43.430;23.136;2023-04-25T04:50:21;97183.28;;;10.78;100.00
46722;BME280;32455;43.430;23.136;2023-04-25T04:53:07;97188.78;;;11.06;100.00
46722;BME280;32455;43.430;23.136;2023-04-25T04:55:53;97210.72;;;11.19;100.00
46722;BME280;32455;43.430;23.136;2023-04-25T04:58:38;97206.94;;;10.98;100.00
46722;BME280;32455;43.430;23.136;2023-04-25T05:01:24;97209.63;;;10.98;100.00
46722;BME280;32455;43.430;23.136;2023-04-25T05:04:10;97200.47;;;10.77;100.00
46722;BME280;32455;43.430;23.136;2023-04-25T05:06:56;97200.69;;;10.54;100.00
46722;BME280;32455;43.430;23.136;2023-04-25T05:09:41;97207.69;;;10.55;100.00
46722;BME280;32455;43.430;23.136;2023-04-25T05:12:26;97204.34;;;10.65;100.00
46722;BME280;32455;43.430;23.136;2023-04-25T05:15:11;97195.59;;;10.74;100.00
46722;BME280;32455;43.430;23.136;2023-04-25T05:17:57;97198.56;;;10.95;100.00
46722;BME280;32455;43.430;23.136;2023-04-25T05:20:42;97185.50;;;11.03;100.00
46722;BME280;32455;43.430;23.136;2023-04-25T05:23:27;97190.28;;;11.18;100.00
46722;BME280;32455;43.430;23.136;2023-04-25T05:26:14;97170.13;;;11.21;100.00
46722;BME280;32455;43.430;23.136;2023-04-25T05:29:00;97190.56;;;11.44;100.00
46722;BME280;32455;43.430;23.136;2023-04-25T05:31:45;97174.53;;;11.54;100.00
46722;BME280;32455;43.430;23.136;2023-04-25T05:34:32;97189.69;;;11.87;100.00
46722;BME280;32455;43.430;23.136;2023-04-25T05:37:17;97180.50;;;12.15;100.00
46722;BME280;32455;43.430;23.136;2023-04-25T05:40:03;97195.78;;;12.05;100.00
46722;BME280;32455;43.430;23.136;2023-04-25T05:42:51;97189.25;;;11.95;100.00
46722;BME280;32455;43.430;23.136;2023-04-25T05:45:37;97192.94;;;11.89;100.00
46722;BME280;32455;43.430;23.136;2023-04-25T05:48:22;97192.69;;;11.69;100.00
46722;BME280;32455;43.430;23.136;2023-04-25T05:51:08;97181.19;;;11.73;100.00
46722;BME280;32455;43.430;23.136;2023-04-25T05:53:54;97173.16;;;11.78;100.00
46722;BME280;32455;43.430;23.136;2023-04-25T05:56:39;97190.06;;;11.96;100.00
46722;BME280;32455;43.430;23.136;2023-04-25T05:59:24;97183.81;;;12.22;100.00
46722;BME280;32455;43.430;23.136;2023-04-25T06:02:10;97200.56;;;12.30;100.00
46722;BME280;32455;43.430;23.136;2023-04-25T06:04:55;97198.22;;;12.38;100.00
46722;BME280;32455;43.430;23.136;2023-04-25T06:07:40;97193.25;;;12.62;100.00
46722;BME280;32455;43.430;23.136;2023-04-25T06:10:26;97205.84;;;12.94;100.00
46722;BME280;32455;43.430;23.136;2023-04-25T06:13:11;97196.97;;;12.93;100.00
46722;BME280;32455;43.430;23.136;2023-04-25T06:15:56;97195.69;;;13.11;100.00
46722;BME280;32455;43.430;23.136;2023-04-25T06:18:42;97201.91;;;13.17;100.00
46722;BME280;32455;43.430;23.136;2023-04-25T06:21:27;97199.72;;;13.09;100.00
46722;BME280;32455;43.430;23.136;2023-04-25T06:24:12;97204.34;;;13.18;100.00
46722;BME280;32455;43.430;23.136;2023-04-25T06:26:57;97210.06;;;13.27;100.00
46722;BME280;32455;43.430;23.136;2023-04-25T06:29:43;97197.44;;;13.38;100.00
46722;BME280;32455;43.430;23.136;2023-04-25T06:32:28;97198.84;;;13.45;100.00
46722;BME280;32455;43.430;23.136;2023-04-25T06:35:14;97218.03;;;13.59;100.00
46722;BME280;32455;43.430;23.136;2023-04-25T06:38:00;97210.50;;;13.66;100.00
46722;BME280;32455;43.430;23.136;2023-04-25T06:40:45;97214.81;;;13.67;100.00
46722;BME280;32455;43.430;23.136;2023-04-25T06:43:31;97218.09;;;13.80;100.00
46722;BME280;32455;43.430;23.136;2023-04-25T06:46:15;97217.28;;;13.89;100.00
46722;BME280;32455;43.430;23.136;2023-04-25T06:49:01;97214.03;;;13.87;100.00
46722;BME280;32455;43.430;23.136;2023-04-25T06:51:46;97217.31;;;13.99;100.00
46722;BME280;32455;43.430;23.136;2023-04-25T06:54:32;97215.97;;;14.17;100.00
46722;BME280;32455;43.430;23.136;2023-04-25T06:57:17;97222.47;;;14.21;100.00
46722;BME280;32455;43.430;23.136;2023-04-25T07:00:03;97222.47;;;14.42;100.00
46722;BME280;32455;43.430;23.136;2023-04-25T07:02:49;97219.22;;;14.19;100.00
46722;BME280;32455;43.430;23.136;2023-04-25T07:05:35;97220.34;;;14.49;100.00
46722;BME280;32455;43.430;23.136;2023-04-25T07:08:20;97218.16;;;14.41;100.00
46722;BME280;32455;43.430;23.136;2023-04-25T07:11:06;97222.25;;;14.53;100.00
46722;BME280;32455;43.430;23.136;2023-04-25T07:13:51;97224.09;;;14.68;100.00
46722;BME280;32455;43.430;23.136;2023-04-25T07:16:37;97222.50;;;14.67;100.00
46722;BME280;32455;43.430;23.136;2023-04-25T07:19:23;97211.16;;;14.65;100.00
46722;BME280;32455;43.430;23.136;2023-04-25T07:22:11;97211.66;;;14.88;99.68
46722;BME280;32455;43.430;23.136;2023-04-25T07:24:55;97214.31;;;14.98;100.00
46722;BME280;32455;43.430;23.136;2023-04-25T07:27:40;97205.44;;;14.77;100.00
46722;BME280;32455;43.430;23.136;2023-04-25T07:30:26;97225.44;;;14.96;99.60
46722;BME280;32455;43.430;23.136;2023-04-25T07:33:11;97219.94;;;15.22;100.00
46722;BME280;32455;43.430;23.136;2023-04-25T07:35:56;97211.88;;;15.12;100.00
46722;BME280;32455;43.430;23.136;2023-04-25T07:38:42;97223.41;;;15.43;100.00
46722;BME280;32455;43.430;23.136;2023-04-25T07:41:27;97219.84;;;15.47;98.83
46722;BME280;32455;43.430;23.136;2023-04-25T07:44:12;97206.41;;;15.22;94.29
46722;BME280;32455;43.430;23.136;2023-04-25T07:46:57;97209.34;;;15.36;100.00
46722;BME280;32455;43.430;23.136;2023-04-25T07:49:43;97222.94;;;15.15;94.35
46722;BME280;32455;43.430;23.136;2023-04-25T07:52:28;97218.69;;;15.64;96.19
46722;BME280;32455;43.430;23.136;2023-04-25T07:55:13;97229.06;;;15.41;94.30
46722;BME280;32455;43.430;23.136;2023-04-25T07:57:58;97225.06;;;15.23;93.03
46722;BME280;32455;43.430;23.136;2023-04-25T08:00:44;97221.66;;;14.92;93.59
46722;BME280;32455;43.430;23.136;2023-04-25T08:03:29;97220.78;;;15.17;99.50
46722;BME280;32455;43.430;23.136;2023-04-25T08:06:14;97230.47;;;15.28;98.76
46722;BME280;32455;43.430;23.136;2023-04-25T08:09:00;97219.19;;;15.01;97.62
46722;BME280;32455;43.430;23.136;2023-04-25T08:11:46;97230.72;;;15.32;99.92
46722;BME280;32455;43.430;23.136;2023-04-25T08:14:31;97236.88;;;15.53;99.28
46722;BME280;32455;43.430;23.136;2023-04-25T08:17:20;97233.91;;;15.55;95.28
46722;BME280;32455;43.430;23.136;2023-04-25T08:20:06;97233.59;;;15.61;96.52
46722;BME280;32455;43.430;23.136;2023-04-25T08:22:52;97231.41;;;15.73;94.72
46722;BME280;32455;43.430;23.136;2023-04-25T08:25:37;97232.19;;;15.79;91.48
46722;BME280;32455;43.430;23.136;2023-04-25T08:28:23;97235.41;;;15.86;88.96
46722;BME280;32455;43.430;23.136;2023-04-25T08:31:08;97251.94;;;15.85;90.13
46722;BME280;32455;43.430;23.136;2023-04-25T08:33:54;97251.63;;;15.91;89.92
46722;BME280;32455;43.430;23.136;2023-04-25T08:36:39;97246.13;;;16.07;91.27
46722;BME280;32455;43.430;23.136;2023-04-25T08:39:24;97240.41;;;16.08;92.59
46722;BME280;32455;43.430;23.136;2023-04-25T08:42:09;97246.84;;;16.17;90.34
46722;BME280;32455;43.430;23.136;2023-04-25T08:44:57;97240.63;;;16.17;93.55
46722;BME280;32455;43.430;23.136;2023-04-25T08:47:45;97241.50;;;16.07;88.22
46722;BME280;32455;43.430;23.136;2023-04-25T08:50:34;97256.38;;;16.10;91.08
46722;BME280;32455;43.430;23.136;2023-04-25T08:53:26;97257.63;;;15.83;95.42
46722;BME280;32455;43.430;23.136;2023-04-25T08:56:12;97249.75;;;15.87;96.54
46722;BME280;32455;43.430;23.136;2023-04-25T08:59:02;97256.38;;;15.50;95.36
46722;BME280;32455;43.430;23.136;2023-04-25T09:01:49;97253.72;;;15.40;99.92
46722;BME280;32455;43.430;23.136;2023-04-25T09:04:35;97249.38;;;15.44;100.00
46722;BME280;32455;43.430;23.136;2023-04-25T09:07:21;97247.72;;;15.53;100.00
46722;BME280;32455;43.430;23.136;2023-04-25T09:10:06;97244.63;;;15.80;100.00
46722;BME280;32455;43.430;23.136;2023-04-25T09:15:57;97252.88;;;15.55;100.00
46722;BME280;32455;43.430;23.136;2023-04-25T09:18:42;97231.91;;;15.75;100.00
46722;BME280;32455;43.430;23.136;2023-04-25T09:21:28;97244.28;;;15.92;100.00
46722;BME280;32455;43.430;23.136;2023-04-25T09:24:15;97230.72;;;15.97;100.00
46722;BME280;32455;43.430;23.136;2023-04-25T09:27:11;97232.09;;;16.34;100.00
46722;BME280;32455;43.430;23.136;2023-04-25T09:29:58;97219.97;;;16.26;100.00
46722;BME280;32455;43.430;23.136;2023-04-25T09:32:45;97221.25;;;16.34;100.00
46722;BME280;32455;43.430;23.136;2023-04-25T09:35:35;97220.91;;;16.45;100.00
46722;BME280;32455;43.430;23.136;2023-04-25T09:38:22;97231.94;;;16.54;100.00
46722;BME280;32455;43.430;23.136;2023-04-25T09:41:08;97230.13;;;16.78;97.56
46722;BME280;32455;43.430;23.136;2023-04-25T09:43:57;97225.22;;;16.46;92.15
46722;BME280;32455;43.430;23.136;2023-04-25T09:46:43;97226.78;;;16.58;95.36
46722;BME280;32455;43.430;23.136;2023-04-25T09:49:28;97213.66;;;16.99;86.86
46722;BME280;32455;43.430;23.136;2023-04-25T09:52:16;97216.31;;;17.04;72.27
46722;BME280;32455;43.430;23.136;2023-04-25T09:55:02;97198.19;;;17.47;72.19
46722;BME280;32455;43.430;23.136;2023-04-25T09:57:48;97193.09;;;17.60;73.14
46722;BME280;32455;43.430;23.136;2023-04-25T10:00:35;97179.38;;;17.51;71.74
46722;BME280;32455;43.430;23.136;2023-04-25T10:03:24;97191.16;;;18.22;72.68
46722;BME280;32455;43.430;23.136;2023-04-25T10:06:19;97192.00;;;17.85;69.93
46722;BME280;32455;43.430;23.136;2023-04-25T10:09:06;97200.59;;;17.68;72.79
46722;BME280;32455;43.430;23.136;2023-04-25T10:11:54;97198.53;;;17.41;76.32
46722;BME280;32455;43.430;23.136;2023-04-25T10:14:40;97200.97;;;17.18;77.08
46722;BME280;32455;43.430;23.136;2023-04-25T10:17:26;97245.44;;;17.22;72.35
46722;BME280;32455;43.430;23.136;2023-04-25T10:20:14;97245.75;;;16.23;86.76
46722;BME280;32455;43.430;23.136;2023-04-25T10:23:09;97251.50;;;15.67;93.50
46722;BME280;32455;43.430;23.136;2023-04-25T10:25:57;97225.75;;;14.54;100.00
46722;BME280;32455;43.430;23.136;2023-04-25T10:29:02;97228.09;;;14.04;100.00
46722;BME280;32455;43.430;23.136;2023-04-25T10:31:48;97251.38;;;14.00;100.00
46722;BME280;32455;43.430;23.136;2023-04-25T10:34:42;97238.09;;;13.94;100.00
46722;BME280;32455;43.430;23.136;2023-04-25T10:37:29;97223.78;;;13.88;100.00
46722;BME280;32455;43.430;23.136;2023-04-25T10:40:21;97223.72;;;13.68;100.00
46722;BME280;32455;43.430;23.136;2023-04-25T10:43:45;97231.91;;;14.09;100.00
46722;BME280;32455;43.430;23.136;2023-04-25T10:46:31;97229.22;;;14.34;100.00
46722;BME280;32455;43.430;23.136;2023-04-25T10:49:32;97228.13;;;14.96;100.00
46722;BME280;32455;43.430;23.136;2023-04-25T10:52:26;97214.66;;;15.56;100.00
46722;BME280;32455;43.430;23.136;2023-04-25T10:55:12;97214.78;;;15.90;100.00
46722;BME280;32455;43.430;23.136;2023-04-25T10:57:57;97214.59;;;15.76;100.00
46722;BME280;32455;43.430;23.136;2023-04-25T11:00:43;97213.63;;;16.36;100.00
46722;BME280;32455;43.430;23.136;2023-04-25T11:03:28;97226.94;;;16.37;100.00
46722;BME280;32455;43.430;23.136;2023-04-25T11:06:22;97239.69;;;15.97;100.00
46722;BME280;32455;43.430;23.136;2023-04-25T11:09:11;97225.25;;;15.52;100.00
46722;BME280;32455;43.430;23.136;2023-04-25T11:12:00;97257.03;;;15.21;100.00
46722;BME280;32455;43.430;23.136;2023-04-25T11:14:46;97261.69;;;14.95;100.00
46722;BME280;32455;43.430;23.136;2023-04-25T11:17:31;97257.88;;;14.45;100.00
46722;BME280;32455;43.430;23.136;2023-04-25T11:20:17;97248.94;;;14.24;100.00
46722;BME280;32455;43.430;23.136;2023-04-25T11:23:02;97246.00;;;14.46;100.00
46722;BME280;32455;43.430;23.136;2023-04-25T11:25:49;97250.63;;;14.61;100.00
46722;BME280;32455;43.430;23.136;2023-04-25T11:28:34;97256.47;;;15.19;100.00
46722;BME280;32455;43.430;23.136;2023-04-25T11:31:20;97266.28;;;15.80;100.00
46722;BME280;32455;43.430;23.136;2023-04-25T11:34:06;97254.72;;;16.14;100.00
46722;BME280;32455;43.430;23.136;2023-04-25T11:36:52;97259.94;;;16.49;100.00
46722;BME280;32455;43.430;23.136;2023-04-25T11:39:38;97251.03;;;16.39;100.00
46722;BME280;32455;43.430;23.136;2023-04-25T11:42:24;97248.84;;;16.01;100.00
46722;BME280;32455;43.430;23.136;2023-04-25T11:45:10;97254.38;;;15.86;100.00
46722;BME280;32455;43.430;23.136;2023-04-25T11:47:56;97257.53;;;16.03;100.00
46722;BME280;32455;43.430;23.136;2023-04-25T11:50:41;97249.41;;;15.34;100.00
46722;BME280;32455;43.430;23.136;2023-04-25T11:53:26;97242.97;;;15.14;100.00
46722;BME280;32455;43.430;23.136;2023-04-25T11:56:13;97260.53;;;15.22;100.00
46722;BME280;32455;43.430;23.136;2023-04-25T11:59:00;97248.09;;;15.16;100.00
46722;BME280;32455;43.430;23.136;2023-04-25T12:01:49;97243.28;;;14.92;100.00
46722;BME280;32455;43.430;23.136;2023-04-25T12:04:35;97243.00;;;14.43;100.00
46722;BME280;32455;43.430;23.136;2023-04-25T12:07:20;97240.59;;;14.31;100.00
46722;BME280;32455;43.430;23.136;2023-04-25T12:10:09;97247.34;;;14.13;100.00
46722;BME280;32455;43.430;23.136;2023-04-25T12:12:55;97225.16;;;14.01;100.00
46722;BME280;32455;43.430;23.136;2023-04-25T12:15:40;97220.03;;;14.25;100.00
46722;BME280;32455;43.430;23.136;2023-04-25T12:18:26;97216.00;;;14.27;100.00
46722;BME280;32455;43.430;23.136;2023-04-25T12:21:14;97217.88;;;14.83;100.00
46722;BME280;32455;43.430;23.136;2023-04-25T12:24:13;97230.47;;;15.23;100.00
46722;BME280;32455;43.430;23.136;2023-04-25T12:27:06;97226.69;;;15.30;100.00
46722;BME280;32455;43.430;23.136;2023-04-25T12:29:56;97214.66;;;15.56;100.00
46722;BME280;32455;43.430;23.136;2023-04-25T12:32:42;97222.50;;;15.68;100.00
46722;BME280;32455;43.430;23.136;2023-04-25T12:35:27;97218.97;;;15.62;100.00
46722;BME280;32455;43.430;23.136;2023-04-25T12:38:24;97220.44;;;15.39;100.00
46722;BME280;32455;43.430;23.136;2023-04-25T12:41:10;97225.06;;;15.23;100.00
46722;BME280;32455;43.430;23.136;2023-04-25T12:43:56;97217.78;;;15.29;100.00
46722;BME280;32455;43.430;23.136;2023-04-25T12:46:41;97216.44;;;15.21;100.00
46722;BME280;32455;43.430;23.136;2023-04-25T12:49:26;97214.47;;;15.37;100.00
46722;BME280;32455;43.430;23.136;2023-04-25T12:52:12;97208.97;;;15.68;100.00
46722;BME280;32455;43.430;23.136;2023-04-25T12:54:57;97197.78;;;15.80;100.00
46722;BME280;32455;43.430;23.136;2023-04-25T12:57:41;97197.81;;;16.19;100.00
46722;BME280;32455;43.430;23.136;2023-04-25T13:00:26;97207.72;;;16.34;100.00
46722;BME280;32455;43.430;23.136;2023-04-25T13:03:11;97184.34;;;16.03;100.00
46722;BME280;32455;43.430;23.136;2023-04-25T13:05:57;97200.56;;;15.69;96.67
46722;BME280;32455;43.430;23.136;2023-04-25T13:08:42;97202.84;;;15.91;100.00
46722;BME280;32455;43.430;23.136;2023-04-25T13:11:28;97203.03;;;16.05;95.04
46722;BME280;32455;43.430;23.136;2023-04-25T13:14:13;97204.34;;;15.68;93.46
46722;BME280;32455;43.430;23.136;2023-04-25T13:16:58;97188.78;;;15.35;93.38
46722;BME280;32455;43.430;23.136;2023-04-25T13:19:44;97189.91;;;15.83;100.00
46722;BME280;32455;43.430;23.136;2023-04-25T13:22:29;97180.16;;;16.21;95.31
46722;BME280;32455;43.430;23.136;2023-04-25T13:25:14;97194.53;;;16.51;89.11
46722;BME280;32455;43.430;23.136;2023-04-25T13:28:01;97204.63;;;17.03;85.40
46722;BME280;32455;43.430;23.136;2023-04-25T13:30:46;97193.06;;;17.22;84.25
46722;BME280;32455;43.430;23.136;2023-04-25T13:33:33;97195.81;;;17.60;81.20
46722;BME280;32455;43.430;23.136;2023-04-25T13:36:18;97195.78;;;17.22;78.84
46722;BME280;32455;43.430;23.136;2023-04-25T13:39:04;97188.53;;;17.36;73.99
46722;BME280;32455;43.430;23.136;2023-04-25T13:41:50;97192.88;;;17.99;76.12
46722;BME280;32455;43.430;23.136;2023-04-25T13:44:35;97194.19;;;18.01;76.11
46722;BME280;32455;43.430;23.136;2023-04-25T13:47:23;97190.16;;;17.80;78.18
46722;BME280;32455;43.430;23.136;2023-04-25T13:50:08;97202.53;;;17.67;78.28
46722;BME280;32455;43.430;23.136;2023-04-25T13:52:54;97195.25;;;16.96;81.41
46722;BME280;32455;43.430;23.136;2023-04-25T13:55:40;97185.59;;;17.09;79.56
46722;BME280;32455;43.430;23.136;2023-04-25T13:58:25;97194.94;;;16.97;81.98
46722;BME280;32455;43.430;23.136;2023-04-25T14:01:10;97196.56;;;16.98;79.04
46722;BME280;32455;43.430;23.136;2023-04-25T14:03:56;97182.03;;;16.55;78.93
46722;BME280;32455;43.430;23.136;2023-04-25T14:06:41;97173.22;;;16.39;81.73
46722;BME280;32455;43.430;23.136;2023-04-25T14:09:27;97188.44;;;16.35;81.09
46722;BME280;32455;43.430;23.136;2023-04-25T14:12:13;97176.72;;;16.11;82.87
46722;BME280;32455;43.430;23.136;2023-04-25T14:14:58;97184.22;;;15.85;84.71
46722;BME280;32455;43.430;23.136;2023-04-25T14:17:42;97179.81;;;15.94;85.01
46722;BME280;32455;43.430;23.136;2023-04-25T14:20:28;97169.25;;;16.32;85.06
46722;BME280;32455;43.430;23.136;2023-04-25T14:23:14;97178.75;;;16.29;79.41